Time;durP1;ratioP1;P1;durP2;ratioP2;P2;SDS_P1;SDS_P2;PMS_P1;PMS_P2;Temp;Humidity;BMP_temperature;BMP_pressure;BME280_temperature;BME280_humidity;BME280_pressure;Samples;Min_cycle;Max_cycle;Signal;HPM_P1;HPM_P2
2021/04/15 00:01:21;;;;;;;4.32;1.55;;;16.90;99.40;;;;;;5071769;28;20025;-72
2021/04/15 00:03:48;;;;;;;5.45;1.45;;;16.90;99.60;;;;;;5071622;28;20036;-71
2021/04/15 00:06:17;;;;;;;6.80;2.08;;;16.90;99.70;;;;;;5072268;28;20050;-73
2021/04/15 00:08:44;;;;;;;5.93;1.60;;;16.90;99.80;;;;;;5071886;28;20066;-75
2021/04/15 00:11:11;;;;;;;4.60;1.35;;;16.90;99.90;;;;;;5072124;28;20023;-74
2021/04/15 00:13:45;;;;;;;4.60;1.67;;;16.90;99.90;;;;;;5074282;28;20074;-73
2021/04/15 00:16:12;;;;;;;4.82;1.60;;;16.90;99.90;;;;;;5071753;28;20024;-72
2021/04/15 00:18:39;;;;;;;6.22;1.52;;;16.80;99.90;;;;;;5071578;28;20017;-73
2021/04/15 00:21:06;;;;;;;6.47;1.85;;;16.80;99.90;;;;;;5071861;28;20431;-73
2021/04/15 00:23:32;;;;;;;6.15;1.90;;;16.80;99.90;;;;;;5070829;28;20380;-72
2021/04/15 00:25:59;;;;;;;5.43;1.60;;;16.80;99.90;;;;;;5071967;28;20029;-76
2021/04/15 00:28:24;;;;;;;10.65;1.58;;;16.80;99.90;;;;;;5070986;28;20094;-73
2021/04/15 00:30:50;;;;;;;5.78;1.38;;;16.80;99.90;;;;;;5071575;28;20040;-73
2021/04/15 00:33:17;;;;;;;3.40;1.48;;;16.80;99.90;;;;;;5071509;28;20101;-73
2021/04/15 00:35:43;;;;;;;4.85;1.60;;;16.80;99.90;;;;;;5071525;28;20024;-75
2021/04/15 00:38:11;;;;;;;7.10;1.80;;;16.80;99.90;;;;;;5071764;28;20028;-73
2021/04/15 00:40:38;;;;;;;6.30;1.50;;;16.80;99.90;;;;;;5071832;28;20388;-75
2021/04/15 00:43:05;;;;;;;4.85;1.30;;;16.80;99.90;;;;;;5071333;28;20480;-75
2021/04/15 00:45:34;;;;;;;6.15;1.60;;;16.70;99.90;;;;;;5071566;28;20366;-73
2021/04/15 00:48:24;;;;;;;5.97;1.30;;;16.70;99.90;;;;;;5071297;28;20028;-72
2021/04/15 00:51:04;;;;;;;4.53;1.08;;;16.70;99.90;;;;;;5068753;28;20033;-72
2021/04/15 00:53:39;;;;;;;5.68;1.70;;;16.70;99.90;;;;;;5071181;28;20029;-74
2021/04/15 00:56:05;;;;;;;5.82;1.80;;;16.70;99.90;;;;;;5071392;28;20024;-76
2021/04/15 00:58:32;;;;;;;5.20;1.20;;;16.70;99.90;;;;;;5071617;28;20025;-71
2021/04/15 01:00:58;;;;;;;4.93;1.27;;;16.70;99.90;;;;;;5071309;28;20028;-73
2021/04/15 01:03:24;;;;;;;5.35;1.05;;;16.70;99.90;;;;;;5071896;28;20036;-74
2021/04/15 01:05:50;;;;;;;4.43;1.40;;;16.70;99.90;;;;;;5071581;28;20029;-71
2021/04/15 01:08:16;;;;;;;2.83;1.20;;;16.70;99.90;;;;;;5071259;28;20089;-73
2021/04/15 01:11:34;;;;;;;4.22;1.20;;;16.70;99.90;;;;;;5071122;28;20461;-70
2021/04/15 01:14:18;;;;;;;4.32;1.35;;;16.60;99.90;;;;;;5074029;28;20063;-72
2021/04/15 01:17:09;;;;;;;3.92;1.10;;;16.60;99.90;;;;;;5091675;28;20028;-71
2021/04/15 01:19:54;;;;;;;3.95;1.27;;;16.60;99.90;;;;;;5084000;28;20068;-72
2021/04/15 01:22:37;;;;;;;4.00;1.40;;;16.60;99.90;;;;;;5070915;28;20039;-71
2021/04/15 01:25:23;;;;;;;5.20;1.35;;;16.60;99.90;;;;;;5068004;28;20054;-74
2021/04/15 01:27:51;;;;;;;4.47;1.20;;;16.60;99.90;;;;;;5070733;28;20369;-71
2021/04/15 01:30:23;;;;;;;4.45;1.30;;;16.60;99.90;;;;;;5071061;28;20017;-73
2021/04/15 01:33:10;;;;;;;5.75;1.42;;;16.60;99.90;;;;;;5070830;28;20027;-72
2021/04/15 01:35:50;;;;;;;4.70;1.20;;;16.60;99.90;;;;;;5071423;28;20023;-71
2021/04/15 01:38:32;;;;;;;2.97;1.38;;;16.60;99.90;;;;;;5070913;28;20067;-72
2021/04/15 01:41:29;;;;;;;8.65;1.50;;;16.60;99.90;;;;;;5071612;28;20040;-72
2021/04/15 01:44:04;;;;;;;2.85;1.05;;;16.50;99.90;;;;;;5069948;28;20040;-74
2021/04/15 01:46:34;;;;;;;4.43;1.30;;;16.50;99.90;;;;;;5074213;28;20025;-74
2021/04/15 01:49:02;;;;;;;3.63;1.30;;;16.50;99.90;;;;;;5074958;28;20036;-75
2021/04/15 01:51:43;;;;;;;3.40;1.08;;;16.40;99.90;;;;;;5074877;28;20070;-75
2021/04/15 01:54:25;;;;;;;3.50;1.35;;;16.40;99.90;;;;;;5074561;28;20056;-77
2021/04/15 01:57:10;;;;;;;2.83;1.00;;;16.40;99.90;;;;;;5074529;28;20569;-73
2021/04/15 01:59:44;;;;;;;4.32;1.30;;;16.40;99.90;;;;;;5074518;28;20025;-74
2021/04/15 02:02:24;;;;;;;4.70;1.20;;;16.40;99.90;;;;;;5073904;28;20119;-74
2021/04/15 02:05:18;;;;;;;3.13;1.20;;;16.40;99.90;;;;;;5074441;28;20024;-72
2021/04/15 02:08:03;;;;;;;4.30;1.33;;;16.40;99.90;;;;;;5074400;28;20427;-74
2021/04/15 02:10:29;;;;;;;4.70;1.48;;;16.30;99.90;;;;;;5074197;28;20101;-71
2021/04/15 02:12:58;;;;;;;2.13;1.15;;;16.30;99.90;;;;;;5076596;28;20027;-77
2021/04/15 02:15:30;;;;;;;6.18;1.58;;;16.30;99.90;;;;;;5085845;28;20016;-73
2021/04/15 02:18:01;;;;;;;2.65;1.08;;;16.30;99.90;;;;;;5073629;28;20021;-75
2021/04/15 02:20:29;;;;;;;3.53;1.35;;;16.30;99.90;;;;;;5074090;28;20037;-76
2021/04/15 02:23:09;;;;;;;7.57;1.40;;;16.30;99.90;;;;;;5073335;28;20032;-74
2021/04/15 02:25:37;;;;;;;2.55;0.95;;;16.10;98.80;;;;;;5074000;28;20520;-75
2021/04/15 02:28:25;;;;;;;4.60;1.15;;;16.00;99.20;;;;;;5073548;28;20097;-71
2021/04/15 02:31:04;;;;;;;7.55;1.23;;;16.00;97.90;;;;;;5073611;28;20361;-72
2021/04/15 02:33:41;;;;;;;6.30;1.38;;;16.00;98.30;;;;;;5072943;28;20024;-75
2021/04/15 02:36:08;;;;;;;5.20;1.20;;;16.00;98.80;;;;;;5074105;28;20108;-74
2021/04/15 02:38:53;;;;;;;3.80;1.20;;;16.00;98.90;;;;;;5073722;28;20372;-72
2021/04/15 02:41:26;;;;;;;4.10;1.30;;;16.00;98.90;;;;;;5073391;28;20040;-75
2021/04/15 02:44:09;;;;;;;2.75;1.00;;;16.00;98.80;;;;;;5073662;28;20033;-74
2021/04/15 02:46:45;;;;;;;4.07;1.30;;;16.00;99.10;;;;;;5073466;28;20414;-74
2021/04/15 02:49:13;;;;;;;4.05;1.33;;;16.00;99.10;;;;;;5073591;28;20099;-73
2021/04/15 02:52:06;;;;;;;4.72;1.67;;;15.90;99.30;;;;;;5073841;28;20032;-71
2021/04/15 02:54:36;;;;;;;3.58;1.40;;;15.90;99.40;;;;;;5073622;28;20070;-73
2021/04/15 02:57:19;;;;;;;4.18;1.25;;;15.90;99.30;;;;;;5073692;28;20028;-75
2021/04/15 02:59:47;;;;;;;5.50;1.20;;;15.90;99.30;;;;;;5073451;28;20075;-76
2021/04/15 03:02:21;;;;;;;2.50;1.20;;;15.90;99.50;;;;;;5072562;28;20025;-75
2021/04/15 03:05:01;;;;;;;4.10;1.52;;;15.90;99.30;;;;;;5073119;28;20464;-77
2021/04/15 03:07:30;;;;;;;3.03;1.30;;;15.80;99.20;;;;;;5073245;28;20115;-75
2021/04/15 03:10:00;;;;;;;4.45;1.65;;;15.80;99.40;;;;;;5072949;28;20108;-71
2021/04/15 03:12:35;;;;;;;3.35;1.38;;;15.80;99.20;;;;;;5072832;28;20035;-72
2021/04/15 03:15:11;;;;;;;2.90;1.20;;;15.80;99.50;;;;;;5083009;28;20024;-77
2021/04/15 03:17:41;;;;;;;2.05;1.20;;;15.80;99.90;;;;;;5072616;28;20492;-71
2021/04/15 03:20:16;;;;;;;3.88;1.40;;;15.80;99.60;;;;;;5072378;28;20032;-75
2021/04/15 03:22:57;;;;;;;6.30;1.30;;;15.80;99.70;;;;;;5072904;28;20419;-74
2021/04/15 03:25:23;;;;;;;3.22;1.20;;;15.80;99.90;;;;;;5072639;28;20074;-74
2021/04/15 03:28:06;;;;;;;4.13;1.35;;;15.80;99.70;;;;;;5072084;28;20029;-71
2021/04/15 03:30:43;;;;;;;2.28;1.30;;;15.80;99.50;;;;;;5072590;28;20085;-70
2021/04/15 03:33:20;;;;;;;2.92;1.23;;;15.70;99.70;;;;;;5071932;28;20108;-70
2021/04/15 03:35:53;;;;;;;3.33;1.17;;;15.70;99.40;;;;;;5072430;28;20031;-74
2021/04/15 03:38:39;;;;;;;2.80;1.20;;;15.70;99.60;;;;;;5072742;28;20021;-74
2021/04/15 03:41:20;;;;;;;5.25;1.27;;;15.70;99.30;;;;;;5072359;28;20025;-73
2021/04/15 03:44:27;;;;;;;5.68;1.33;;;15.70;99.50;;;;;;5072687;28;20036;-74
2021/04/15 03:47:00;;;;;;;4.07;1.20;;;15.70;99.70;;;;;;5035117;28;20057;-73
2021/04/15 03:49:44;;;;;;;2.78;1.30;;;15.70;99.80;;;;;;5048901;28;20029;-72
2021/04/15 03:52:20;;;;;;;3.15;1.30;;;15.70;99.50;;;;;;5052342;28;20062;-72
2021/04/15 03:54:56;;;;;;;4.95;1.40;;;15.60;99.60;;;;;;5067156;28;20043;-72
2021/04/15 03:57:24;;;;;;;1.70;1.15;;;15.60;99.60;;;;;;5072077;28;20112;-73
2021/04/15 04:00:08;;;;;;;2.05;1.10;;;15.60;99.40;;;;;;5072336;28;20453;-77
2021/04/15 04:02:46;;;;;;;;;;;15.60;99.50;;;;;;5072351;28;20036;-74
2021/04/15 04:05:25;;;;;;;2.33;1.13;;;15.60;99.50;;;;;;5071921;28;19930;-76
2021/04/15 04:08:33;;;;;;;3.80;1.30;;;15.60;99.70;;;;;;5070989;28;20065;-71
2021/04/15 04:10:59;;;;;;;3.10;1.33;;;15.60;99.90;;;;;;5069147;28;20041;-74
2021/04/15 04:13:38;;;;;;;4.25;1.40;;;15.60;99.60;;;;;;5078656;28;20027;-75
2021/04/15 04:16:25;;;;;;;6.28;1.52;;;15.60;99.40;;;;;;5085442;28;20032;-78
2021/04/15 04:19:15;;;;;;;3.38;1.20;;;15.50;99.50;;;;;;5071785;28;20030;-76
2021/04/15 04:21:46;;;;;;;2.17;1.00;;;15.50;99.90;;;;;;5071451;28;20040;-69
2021/04/15 04:24:35;;;;;;;3.10;1.30;;;15.50;99.70;;;;;;5072021;28;20020;-72
2021/04/15 04:27:10;;;;;;;2.15;1.13;;;15.50;99.50;;;;;;5068824;28;20047;-68
2021/04/15 04:29:50;;;;;;;3.45;1.35;;;15.60;99.60;;;;;;5072453;28;20099;-71
2021/04/15 04:32:18;;;;;;;2.22;1.40;;;15.50;99.30;;;;;;5071689;28;20372;-72
2021/04/15 04:34:50;;;;;;;5.63;1.17;;;15.50;99.40;;;;;;5071761;28;20082;-72
2021/04/15 04:37:16;;;;;;;2.90;1.25;;;15.50;99.70;;;;;;5071932;28;20530;-74
2021/04/15 04:39:42;;;;;;;3.17;1.17;;;15.50;99.60;;;;;;5071949;28;20729;-68
2021/04/15 04:42:14;;;;;;;1.85;1.15;;;15.50;99.60;;;;;;5071792;28;20090;-72
2021/04/15 04:44:44;;;;;;;3.17;1.05;;;15.50;99.60;;;;;;5072087;28;20082;-73
2021/04/15 04:47:27;;;;;;;2.95;1.52;;;15.50;99.30;;;;;;5071628;28;20028;-73
2021/04/15 04:50:25;;;;;;;2.13;1.40;;;15.40;99.50;;;;;;5071663;28;20376;-73
2021/04/15 04:53:03;;;;;;;2.17;1.10;;;15.40;99.40;;;;;;5051233;28;20037;-71
2021/04/15 04:55:47;;;;;;;2.15;1.08;;;15.40;99.90;;;;;;5053632;28;20074;-74
2021/04/15 04:58:18;;;;;;;1.77;0.93;;;15.40;99.60;;;;;;5071441;28;20032;-74
2021/04/15 05:00:51;;;;;;;2.28;1.10;;;15.40;99.40;;;;;;5071116;28;20060;-78
2021/04/15 05:03:24;;;;;;;3.13;1.20;;;15.40;99.70;;;;;;5071780;28;20037;-76
2021/04/15 05:06:00;;;;;;;4.13;1.25;;;15.40;99.90;;;;;;5071962;28;20025;-72
2021/04/15 05:08:30;;;;;;;4.05;1.38;;;15.40;99.50;;;;;;5071275;28;20499;-77
2021/04/15 05:10:57;;;;;;;2.20;1.00;;;15.30;99.50;;;;;;5071740;28;20017;-72
2021/04/15 05:13:29;;;;;;;3.75;1.00;;;15.30;99.70;;;;;;5077736;28;20032;-74
2021/04/15 05:16:00;;;;;;;3.53;1.20;;;15.30;99.40;;;;;;5091952;28;20495;-77
2021/04/15 05:18:26;;;;;;;4.95;1.30;;;15.30;99.50;;;;;;5071707;28;20020;-76
2021/04/15 05:20:58;;;;;;;2.88;1.40;;;15.30;99.90;;;;;;5072517;28;20029;-74
2021/04/15 05:23:36;;;;;;;6.10;1.80;;;15.30;99.90;;;;;;5085877;28;20071;-76
2021/04/15 05:26:09;;;;;;;3.08;1.25;;;15.30;99.90;;;;;;5083966;28;20059;-78
2021/04/15 05:28:37;;;;;;;2.72;1.30;;;15.30;99.70;;;;;;5084942;28;20024;-78
2021/04/15 05:31:10;;;;;;;3.65;1.48;;;15.30;99.90;;;;;;5092948;28;20100;-72
2021/04/15 05:33:38;;;;;;;6.27;1.43;;;15.30;99.80;;;;;;5088037;28;20035;-74
2021/04/15 05:36:03;;;;;;;2.78;1.17;;;15.30;99.90;;;;;;5079217;28;20032;-73
2021/04/15 05:38:36;;;;;;;2.97;1.50;;;15.30;99.90;;;;;;5095250;28;20558;-76
2021/04/15 05:41:05;;;;;;;2.35;1.27;;;15.30;99.90;;;;;;5084944;28;20028;-74
2021/04/15 05:43:51;;;;;;;5.00;1.30;;;15.20;99.80;;;;;;5082450;28;20087;-75
2021/04/15 05:46:22;;;;;;;3.15;1.27;;;15.20;99.30;;;;;;5080818;28;20025;-73
2021/04/15 05:48:53;;;;;;;3.97;1.52;;;15.20;99.20;;;;;;5084064;28;20035;-73
2021/04/15 05:51:24;;;;;;;1.45;1.20;;;15.10;97.80;;;;;;5074989;28;20066;-70
2021/04/15 05:53:54;;;;;;;1.70;1.25;;;14.90;95.30;;;;;;5093543;28;20024;-72
2021/04/15 05:56:25;;;;;;;4.88;1.05;;;14.90;94.90;;;;;;5081952;28;20472;-74
2021/04/15 05:59:13;;;;;;;6.13;1.45;;;14.90;93.60;;;;;;5073046;28;20074;-70
2021/04/15 06:02:05;;;;;;;1.73;1.08;;;14.90;92.50;;;;;;5080162;28;20025;-74
2021/04/15 06:04:38;;;;;;;16.85;2.33;;;14.80;92.80;;;;;;5092335;28;20483;-74
2021/04/15 06:07:06;;;;;;;7.35;2.85;;;14.70;93.00;;;;;;5077644;28;20024;-72
2021/04/15 06:09:32;;;;;;;12.38;3.47;;;14.60;92.60;;;;;;5071909;28;20032;-73
2021/04/15 06:12:30;;;;;;;7.95;4.32;;;14.30;92.30;;;;;;5087619;28;20483;-72
2021/04/15 06:15:03;;;;;;;7.65;4.85;;;14.10;92.20;;;;;;5082542;28;20067;-74
2021/04/15 06:17:40;;;;;;;11.90;5.75;;;13.90;92.00;;;;;;5065041;28;20082;-74
2021/04/15 06:20:31;;;;;;;9.45;5.53;;;13.80;92.00;;;;;;5089933;28;20544;-74
2021/04/15 06:23:03;;;;;;;11.73;5.68;;;13.60;92.00;;;;;;5071963;28;20039;-74
2021/04/15 06:25:36;;;;;;;8.45;4.55;;;13.60;92.50;;;;;;5080983;28;20429;-76
2021/04/15 06:28:07;;;;;;;4.80;2.10;;;14.00;92.20;;;;;;5063241;28;20043;-73
2021/04/15 06:31:04;;;;;;;5.13;2.17;;;14.40;90.60;;;;;;5072876;28;20013;-73
2021/04/15 06:33:30;;;;;;;10.02;1.65;;;14.70;89.60;;;;;;5079695;28;20064;-78
2021/04/15 06:35:58;;;;;;;4.70;1.80;;;14.90;88.90;;;;;;5094015;28;20039;-80
2021/04/15 06:38:28;;;;;;;3.05;1.90;;;15.00;88.40;;;;;;5092629;28;20074;-79
2021/04/15 06:41:31;;;;;;;3.80;1.52;;;15.00;88.10;;;;;;5076594;28;20492;-78
2021/04/15 06:44:27;;;;;;;3.53;1.67;;;15.10;87.70;;;;;;5090227;28;20056;-78
2021/04/15 06:47:23;;;;;;;3.83;1.92;;;15.20;87.40;;;;;;5065788;28;20028;-77
2021/04/15 06:50:10;;;;;;;3.55;1.73;;;15.30;87.30;;;;;;5074159;28;20028;-77
2021/04/15 06:52:49;;;;;;;4.78;1.40;;;15.40;87.20;;;;;;5068580;28;20032;-76
2021/04/15 06:55:22;;;;;;;5.63;1.80;;;15.50;87.00;;;;;;5068448;28;20159;-74
2021/04/15 06:57:59;;;;;;;5.25;1.80;;;15.60;87.00;;;;;;5059132;28;20468;-75
2021/04/15 07:00:43;;;;;;;2.85;1.70;;;15.70;87.00;;;;;;5071415;28;20085;-77
2021/04/15 07:03:22;;;;;;;2.72;1.48;;;15.80;87.00;;;;;;5073015;28;20531;-78
2021/04/15 07:05:57;;;;;;;2.13;1.40;;;15.90;86.90;;;;;;5076630;28;20055;-75
2021/04/15 07:08:41;;;;;;;4.97;1.65;;;15.90;86.90;;;;;;5093488;28;20043;-77
2021/04/15 07:11:12;;;;;;;;;;;16.00;86.80;;;;;;5065866;28;20032;-73
2021/04/15 07:14:17;;;;;;;3.05;1.52;;;16.20;87.20;;;;;;5060265;28;19913;-74
2021/04/15 07:16:53;;;;;;;5.68;1.73;;;16.40;87.50;;;;;;5068239;28;20036;-75
2021/04/15 07:19:19;;;;;;;3.95;1.60;;;16.50;89.40;;;;;;5072714;28;20029;-74
2021/04/15 07:21:56;;;;;;;4.07;1.30;;;16.50;89.30;;;;;;5072355;28;20078;-74
2021/04/15 07:24:34;;;;;;;3.90;1.58;;;16.50;88.80;;;;;;5071460;28;20040;-73
2021/04/15 07:27:18;;;;;;;5.65;1.70;;;16.70;89.70;;;;;;5069156;28;20029;-76
2021/04/15 07:30:13;;;;;;;8.10;3.10;;;17.00;90.20;;;;;;5088868;28;20107;-75
2021/04/15 07:33:05;;;;;;;7.28;2.70;;;16.50;90.60;;;;;;5086075;28;20115;-72
2021/04/15 07:36:10;;;;;;;5.90;2.22;;;16.60;90.10;;;;;;5086420;28;20024;-78
2021/04/15 07:38:55;;;;;;;6.32;2.40;;;16.80;90.80;;;;;;5070980;28;20090;-74
2021/04/15 07:41:32;;;;;;;;;;;16.90;91.00;;;;;;5092120;28;20047;-77
2021/04/15 07:44:24;;;;;;;5.00;2.38;;;17.00;91.30;;;;;;5088379;28;19908;-77
2021/04/15 07:46:50;;;;;;;7.93;2.00;;;17.00;91.60;;;;;;5068190;28;20510;-72
2021/04/15 07:49:21;;;;;;;6.53;2.25;;;17.10;91.60;;;;;;5085075;28;20133;-76
2021/04/15 07:52:27;;;;;;;5.32;1.70;;;17.10;91.80;;;;;;5087780;28;20032;-73
2021/04/15 07:55:30;;;;;;;4.25;1.70;;;17.10;92.00;;;;;;5047442;28;20405;-70
2021/04/15 07:58:16;;;;;;;4.28;1.83;;;17.10;92.20;;;;;;5082921;28;20046;-73
2021/04/15 08:01:07;;;;;;;5.53;2.47;;;17.20;92.50;;;;;;5058706;28;20384;-71
2021/04/15 08:03:53;;;;;;;3.70;1.73;;;17.20;92.70;;;;;;5086616;28;20052;-71
2021/04/15 08:06:36;;;;;;;2.92;1.50;;;17.20;92.70;;;;;;5092918;28;20422;-73
2021/04/15 08:09:31;;;;;;;4.57;1.50;;;18.00;92.30;;;;;;5081780;28;20047;-71
2021/04/15 08:12:24;;;;;;;2.60;1.40;;;19.40;90.90;;;;;;5082461;28;20467;-71
2021/04/15 08:15:16;;;;;;;2.72;1.55;;;20.70;89.10;;;;;;5092569;28;20051;-72
2021/04/15 08:18:00;;;;;;;3.20;1.35;;;21.50;87.60;;;;;;5075273;28;20051;-72
2021/04/15 08:20:44;;;;;;;5.00;1.55;;;22.00;86.60;;;;;;5092166;28;20056;-73
2021/04/15 08:23:30;;;;;;;3.38;1.30;;;21.90;87.00;;;;;;5075428;28;20037;-74
2021/04/15 08:26:36;;;;;;;5.65;1.52;;;21.40;88.90;;;;;;5075987;28;20032;-73
2021/04/15 08:29:31;;;;;;;2.72;1.25;;;22.10;87.80;;;;;;5086147;28;20024;-71
2021/04/15 08:32:02;;;;;;;3.38;1.00;;;21.80;88.70;;;;;;5077476;28;20029;-72
2021/04/15 08:35:05;;;;;;;3.35;1.30;;;21.60;89.60;;;;;;5090760;28;20027;-75
2021/04/15 08:38:01;;;;;;;3.60;1.25;;;22.50;88.10;;;;;;5074138;28;20032;-75
2021/04/15 08:41:15;;;;;;;3.20;0.93;;;22.00;89.60;;;;;;5087444;28;20025;-78
2021/04/15 08:43:41;;;;;;;3.05;0.80;;;21.90;90.10;;;;;;5046762;28;20044;-78
2021/04/15 08:46:17;;;;;;;3.70;1.33;;;22.60;88.90;;;;;;5064365;28;20040;-75
2021/04/15 08:48:45;;;;;;;3.10;1.00;;;22.10;90.40;;;;;;5078372;28;20174;-75
2021/04/15 08:51:17;;;;;;;4.70;1.30;;;21.80;90.60;;;;;;5056559;28;20025;-74
2021/04/15 08:54:03;;;;;;;2.95;0.90;;;22.60;89.70;;;;;;5084142;28;20021;-74
2021/04/15 08:56:56;;;;;;;2.83;0.90;;;22.30;90.60;;;;;;5083388;28;20040;-75
2021/04/15 08:59:37;;;;;;;2.03;0.70;;;21.80;91.10;;;;;;5089897;28;20024;-74
2021/04/15 09:02:56;;;;;;;1.50;0.80;;;22.60;90.30;;;;;;5094719;28;20059;-75
2021/04/15 09:05:24;;;;;;;3.63;1.20;;;22.30;91.40;;;;;;5073842;28;20032;-70
2021/04/15 09:08:03;;;;;;;2.15;0.90;;;21.90;91.80;;;;;;5068938;28;20033;-74
2021/04/15 09:10:34;;;;;;;1.65;0.88;;;22.60;90.60;;;;;;5080611;28;20029;-73
2021/04/15 09:13:20;;;;;;;1.88;1.00;;;22.50;90.90;;;;;;5075457;28;20021;-73
2021/04/15 09:16:12;;;;;;;3.65;1.05;;;22.10;91.60;;;;;;5075507;28;20070;-73
2021/04/15 09:19:06;;;;;;;3.25;0.90;;;22.40;91.10;;;;;;5091261;28;20047;-74
2021/04/15 09:21:46;;;;;;;3.30;0.82;;;22.60;91.20;;;;;;5093555;28;20039;-73
2021/04/15 09:24:36;;;;;;;2.15;0.98;;;22.20;91.90;;;;;;5095500;28;20464;-71
2021/04/15 09:27:20;;;;;;;3.42;0.95;;;22.30;91.70;;;;;;5074110;28;20029;-73
2021/04/15 09:29:55;;;;;;;;;;;22.80;91.30;;;;;;5075557;28;20496;-73
2021/04/15 09:32:26;;;;;;;2.17;0.82;;;22.40;91.80;;;;;;5093085;28;20394;-75
2021/04/15 09:35:07;;;;;;;2.80;0.82;;;22.10;92.00;;;;;;5092290;28;20056;-71
2021/04/15 09:37:45;;;;;;;4.57;1.00;;;22.80;91.20;;;;;;5078857;28;20039;-74
2021/04/15 09:40:22;;;;;;;2.70;0.95;;;22.60;91.80;;;;;;5095239;28;20020;-72
2021/04/15 09:42:57;;;;;;;2.47;1.02;;;22.40;92.30;;;;;;5073521;28;20047;-71
2021/04/15 09:45:27;;;;;;;2.88;0.98;;;22.30;91.20;;;;;;5094048;28;20025;-72
2021/04/15 09:48:09;;;;;;;2.17;0.82;;;23.10;89.80;;;;;;5094124;28;20423;-72
2021/04/15 09:50:53;;;;;;;2.65;0.90;;;22.90;90.30;;;;;;5093064;28;20020;-71
2021/04/15 09:53:40;;;;;;;3.95;0.95;;;22.60;91.70;;;;;;5074640;28;20427;-75
2021/04/15 09:56:14;;;;;;;2.55;0.80;;;22.30;91.90;;;;;;5078889;28;20028;-75
2021/04/15 09:58:55;;;;;;;;;;;22.90;90.70;;;;;;5088126;28;20064;-73
2021/04/15 10:01:29;;;;;;;1.67;0.82;;;22.80;91.60;;;;;;5080429;28;19919;-73
2021/04/15 10:04:18;;;;;;;1.23;0.70;;;22.50;91.90;;;;;;5074804;28;20103;-72
2021/04/15 10:07:19;;;;;;;1.73;0.75;;;22.40;92.10;;;;;;5085562;28;20020;-71
2021/04/15 10:10:22;;;;;;;3.95;0.90;;;22.90;91.30;;;;;;5091163;28;20097;-73
2021/04/15 10:13:07;;;;;;;1.15;0.60;;;22.70;92.00;;;;;;5068187;28;20035;-71
2021/04/15 10:15:48;;;;;;;1.83;0.85;;;22.40;92.50;;;;;;5094525;28;20076;-74
2021/04/15 10:18:40;;;;;;;4.28;0.88;;;22.70;91.70;;;;;;5067946;28;20059;-73
2021/04/15 10:21:28;;;;;;;1.75;0.82;;;22.90;91.70;;;;;;5071604;28;20028;-70
2021/04/15 10:24:16;;;;;;;2.33;0.60;;;22.60;91.90;;;;;;5054159;28;20032;-72
2021/04/15 10:27:24;;;;;;;2.70;0.80;;;22.30;92.30;;;;;;5069341;28;20500;-71
2021/04/15 10:30:07;;;;;;;1.95;0.70;;;22.00;91.90;;;;;;5052735;28;20021;-71
2021/04/15 10:33:04;;;;;;;1.48;0.90;;;21.70;91.60;;;;;;5053698;28;20040;-71
2021/04/15 10:36:09;;;;;;;1.73;0.77;;;21.40;91.00;;;;;;5058693;28;20052;-70
2021/04/15 10:39:06;;;;;;;2.35;0.93;;;21.20;90.60;;;;;;5045910;28;20437;-70
2021/04/15 10:41:58;;;;;;;1.85;0.80;;;21.10;89.80;;;;;;5070545;28;20123;-69
2021/04/15 10:44:52;;;;;;;1.58;0.70;;;21.00;89.50;;;;;;5069643;28;20050;-70
2021/04/15 10:47:36;;;;;;;1.87;0.70;;;20.90;89.10;;;;;;5070881;28;20031;-70
2021/04/15 10:50:11;;;;;;;;;;;20.80;89.20;;;;;;5070548;28;20267;-72
2021/04/15 10:52:45;;;;;;;;;;;20.70;88.30;;;;;;5069847;28;19904;-70
2021/04/15 10:55:33;;;;;;;2.38;0.70;;;20.60;87.90;;;;;;5069856;28;19919;-70
2021/04/15 10:58:34;;;;;;;3.17;0.80;;;20.50;87.50;;;;;;5069848;28;20024;-70
2021/04/15 11:01:20;;;;;;;2.38;0.90;;;20.50;87.80;;;;;;5060966;28;20024;-71
2021/04/15 11:03:46;;;;;;;1.63;0.73;;;20.60;88.50;;;;;;5070460;28;20419;-71
2021/04/15 11:06:32;;;;;;;1.77;0.90;;;20.60;88.60;;;;;;5071133;28;20020;-70
2021/04/15 11:09:32;;;;;;;1.88;0.80;;;20.60;88.70;;;;;;5069810;28;20024;-69
2021/04/15 11:12:31;;;;;;;2.53;0.90;;;20.70;88.50;;;;;;5069915;28;20548;-70
2021/04/15 11:14:56;;;;;;;2.35;0.80;;;20.70;88.40;;;;;;5060376;28;20171;-71
2021/04/15 11:17:26;;;;;;;1.67;0.68;;;20.60;88.70;;;;;;5071600;28;20531;-69
2021/04/15 11:20:10;;;;;;;2.00;0.65;;;20.60;89.00;;;;;;5070486;28;20021;-71
2021/04/15 11:22:39;;;;;;;1.30;0.65;;;20.50;89.00;;;;;;5071766;28;20032;-70
2021/04/15 11:25:47;;;;;;;1.58;0.60;;;20.50;89.20;;;;;;5073438;28;20660;-71
2021/04/15 11:28:22;;;;;;;1.70;0.60;;;20.40;89.20;;;;;;5070873;28;20107;-70
2021/04/15 11:31:15;;;;;;;1.35;0.75;;;20.40;89.10;;;;;;5072196;28;20028;-70
2021/04/15 11:33:49;;;;;;;2.75;1.17;;;20.30;89.10;;;;;;5071339;28;20107;-70
2021/04/15 11:36:31;;;;;;;1.88;0.80;;;20.30;89.20;;;;;;5071046;28;20024;-71
2021/04/15 11:39:09;;;;;;;4.03;0.90;;;20.30;89.10;;;;;;5072610;28;20477;-70
2021/04/15 11:41:46;;;;;;;1.63;0.90;;;20.30;89.30;;;;;;5068564;28;20024;-70
2021/04/15 11:44:34;;;;;;;2.15;0.73;;;20.20;89.20;;;;;;5072622;28;20115;-70
2021/04/15 11:47:28;;;;;;;2.10;0.70;;;20.90;87.60;;;;;;5072171;28;20013;-70
2021/04/15 11:50:10;;;;;;;5.70;0.80;;;21.60;85.60;;;;;;5071619;28;20024;-71
2021/04/15 11:52:40;;;;;;;3.30;0.90;;;21.40;88.10;;;;;;5072091;28;20090;-72
2021/04/15 11:55:24;;;;;;;4.07;0.90;;;21.20;89.50;;;;;;5070345;28;20059;-73
2021/04/15 11:57:59;;;;;;;3.63;1.10;;;21.10;90.10;;;;;;5070811;28;20034;-73
2021/04/15 12:00:29;;;;;;;8.15;1.08;;;21.00;90.50;;;;;;5071899;28;20036;-74
2021/04/15 12:02:57;;;;;;;1.23;0.70;;;20.90;90.90;;;;;;5071031;28;20127;-73
2021/04/15 12:05:30;;;;;;;2.50;0.70;;;20.90;90.60;;;;;;5072307;28;20032;-72
2021/04/15 12:08:17;;;;;;;1.73;0.70;;;20.90;91.00;;;;;;5067821;28;20488;-76
2021/04/15 12:10:55;;;;;;;4.28;0.95;;;20.90;91.70;;;;;;5056212;28;20041;-76
2021/04/15 12:13:34;;;;;;;2.83;0.65;;;20.90;91.20;;;;;;5070975;28;20070;-73
2021/04/15 12:16:14;;;;;;;2.50;0.82;;;21.00;91.00;;;;;;5072563;28;20074;-74
2021/04/15 12:18:47;;;;;;;4.28;0.70;;;20.90;91.20;;;;;;5072150;28;20476;-74
2021/04/15 12:21:34;;;;;;;2.30;0.83;;;21.00;91.50;;;;;;5071941;28;20032;-78
2021/04/15 12:24:04;;;;;;;2.15;0.60;;;21.10;91.50;;;;;;5071989;28;20107;-75
2021/04/15 12:27:06;;;;;;;8.93;0.80;;;21.20;91.60;;;;;;5072430;28;20020;-76
2021/04/15 12:29:38;;;;;;;3.60;0.70;;;21.30;91.90;;;;;;5071790;28;20417;-78
2021/04/15 12:32:11;;;;;;;2.97;0.93;;;21.30;91.90;;;;;;5072339;28;20032;-72
2021/04/15 12:34:40;;;;;;;4.20;0.82;;;21.40;92.20;;;;;;5071851;28;20488;-74
2021/04/15 12:37:36;;;;;;;4.75;0.93;;;21.50;92.40;;;;;;5071153;28;20067;-77
2021/04/15 12:40:02;;;;;;;2.47;0.70;;;21.50;92.90;;;;;;5072143;28;20024;-73
2021/04/15 12:42:30;;;;;;;2.90;0.80;;;21.50;92.50;;;;;;5071616;28;20036;-76
2021/04/15 12:45:00;;;;;;;3.15;0.98;;;21.60;92.90;;;;;;5071572;28;20070;-74
2021/04/15 12:47:31;;;;;;;3.45;0.90;;;21.70;92.70;;;;;;5071942;28;20029;-72
2021/04/15 12:49:57;;;;;;;3.75;0.95;;;21.70;93.00;;;;;;5071907;28;20024;-73
2021/04/15 12:52:28;;;;;;;3.70;0.88;;;21.80;92.90;;;;;;5071545;28;20032;-71
2021/04/15 12:54:53;;;;;;;2.30;0.70;;;21.90;92.90;;;;;;5070693;28;20104;-71
2021/04/15 12:57:20;;;;;;;2.50;0.68;;;21.90;92.90;;;;;;5067909;28;20448;-72
2021/04/15 12:59:48;;;;;;;2.92;0.70;;;21.90;92.90;;;;;;5051648;28;20036;-72
2021/04/15 13:02:23;;;;;;;1.50;0.60;;;22.00;93.00;;;;;;5051747;28;20099;-73
2021/04/15 13:04:53;;;;;;;3.08;0.73;;;22.10;92.80;;;;;;5051764;28;20060;-74
2021/04/15 13:07:21;;;;;;;2.55;0.70;;;22.20;93.10;;;;;;5051501;28;20029;-74
2021/04/15 13:09:50;;;;;;;3.47;0.70;;;22.20;93.00;;;;;;5051791;28;20068;-75
2021/04/15 13:12:36;;;;;;;2.45;0.65;;;22.20;92.90;;;;;;5051523;28;20115;-75
2021/04/15 13:15:25;;;;;;;2.13;0.70;;;22.20;92.90;;;;;;5056607;28;20038;-73
2021/04/15 13:17:58;;;;;;;2.03;0.75;;;22.20;92.80;;;;;;5066867;28;20404;-78
2021/04/15 13:20:24;;;;;;;1.30;0.60;;;22.20;92.80;;;;;;5071101;28;20025;-72
2021/04/15 13:23:30;;;;;;;1.58;0.70;;;22.20;92.80;;;;;;5071105;28;20036;-75
2021/04/15 13:25:56;;;;;;;2.13;0.80;;;22.20;93.00;;;;;;5065169;28;20108;-72
2021/04/15 13:28:46;;;;;;;2.90;0.57;;;22.10;93.00;;;;;;5071343;28;20112;-73
2021/04/15 13:31:40;;;;;;;1.15;0.60;;;22.20;93.30;;;;;;5071448;28;20422;-76
2021/04/15 13:34:08;;;;;;;2.13;0.52;;;22.20;93.10;;;;;;5071395;28;20021;-78
2021/04/15 13:36:34;;;;;;;1.75;0.70;;;22.10;93.00;;;;;;5071598;28;20039;-77
2021/04/15 13:39:03;;;;;;;2.88;0.57;;;22.20;93.10;;;;;;5070375;28;20029;-77
2021/04/15 13:41:28;;;;;;;1.88;0.80;;;22.20;93.00;;;;;;5072714;28;20033;-79
2021/04/15 13:44:03;;;;;;;0.80;0.40;;;22.20;93.20;;;;;;5074661;28;20086;-79
2021/04/15 13:46:33;;;;;;;2.50;0.77;;;22.20;93.30;;;;;;5074137;28;20024;-77
2021/04/15 13:49:20;;;;;;;2.83;0.90;;;22.20;93.20;;;;;;5074761;28;20039;-76